Time;durP1;ratioP1;P1;durP2;ratioP2;P2;SDS_P1;SDS_P2;PMS_P1;PMS_P2;Temp;Humidity;BMP_temperature;BMP_pressure;BME280_temperature;BME280_humidity;BME280_pressure;Samples;Min_cycle;Max_cycle;Signal;HPM_P1;HPM_P2
2024/01/15 00:01:16;;;;;;;26.27;12.32;;;1.50;99.90;;;;;;5051819;28;20207;-59
2024/01/15 00:03:42;;;;;;;24.77;10.48;;;1.40;99.90;;;;;;5051421;28;20166;-58
2024/01/15 00:06:07;;;;;;;33.08;14.60;;;1.40;99.90;;;;;;5051355;28;20174;-58
2024/01/15 00:08:33;;;;;;;17.17;8.63;;;1.40;99.90;;;;;;5051543;28;20173;-59
2024/01/15 00:10:58;;;;;;;27.27;11.40;;;1.40;99.90;;;;;;5051249;28;20174;-57
2024/01/15 00:13:24;;;;;;;23.15;10.80;;;1.40;99.90;;;;;;5051213;28;20170;-59
2024/01/15 00:15:50;;;;;;;29.92;13.68;;;1.40;99.90;;;;;;5051158;28;20171;-59
2024/01/15 00:18:15;;;;;;;27.60;12.02;;;1.30;99.90;;;;;;5051278;28;20221;-59
2024/01/15 00:20:41;;;;;;;27.85;13.63;;;1.30;99.90;;;;;;5051001;28;20207;-60
2024/01/15 00:23:06;;;;;;;28.73;13.60;;;1.30;99.90;;;;;;5050999;28;20172;-56
2024/01/15 00:25:32;;;;;;;28.48;14.43;;;1.30;99.90;;;;;;5051278;28;20202;-57
2024/01/15 00:27:57;;;;;;;35.90;15.10;;;1.30;99.90;;;;;;5050837;28;20824;-48
2024/01/15 00:30:23;;;;;;;27.95;13.35;;;1.20;99.90;;;;;;5050983;28;20249;-49
2024/01/15 00:32:49;;;;;;;27.92;11.77;;;1.30;99.90;;;;;;5051194;28;20254;-48
2024/01/15 00:35:14;;;;;;;29.08;13.15;;;1.30;99.90;;;;;;5051467;28;20162;-48
2024/01/15 00:37:40;;;;;;;27.10;11.80;;;1.20;99.90;;;;;;5051359;28;20172;-48
2024/01/15 00:40:07;;;;;;;21.83;11.00;;;1.20;99.90;;;;;;5051038;28;20228;-48
2024/01/15 00:42:33;;;;;;;36.00;15.32;;;1.20;99.90;;;;;;5050685;28;20175;-52
2024/01/15 00:44:59;;;;;;;35.45;14.32;;;1.30;99.90;;;;;;5050993;28;20254;-48
2024/01/15 00:47:24;;;;;;;29.73;13.90;;;1.30;99.90;;;;;;5051070;28;20634;-50
2024/01/15 00:49:50;;;;;;;35.65;15.00;;;1.30;99.90;;;;;;5050880;28;20178;-48
2024/01/15 00:52:15;;;;;;;33.78;15.50;;;1.30;99.90;;;;;;5051530;28;20177;-49
2024/01/15 00:54:41;;;;;;;34.80;14.00;;;1.20;99.90;;;;;;5050932;28;20158;-48
2024/01/15 00:57:06;;;;;;;23.83;9.70;;;1.20;99.90;;;;;;5053704;28;20225;-49
2024/01/15 00:59:32;;;;;;;26.48;12.05;;;1.20;99.90;;;;;;5054987;28;20202;-60
2024/01/15 01:01:58;;;;;;;33.20;12.43;;;1.20;99.90;;;;;;5055015;28;20596;-59
2024/01/15 01:04:23;;;;;;;31.05;13.05;;;1.30;99.90;;;;;;5054730;28;20162;-59
2024/01/15 01:06:49;;;;;;;24.45;11.68;;;1.20;99.90;;;;;;5055232;28;20209;-51
2024/01/15 01:09:14;;;;;;;40.00;15.65;;;1.30;99.90;;;;;;5055462;28;20167;-55
2024/01/15 01:11:40;;;;;;;35.42;14.90;;;1.30;99.90;;;;;;5054897;28;20626;-51
2024/01/15 01:14:06;;;;;;;31.52;12.65;;;1.30;99.90;;;;;;5054812;28;20167;-53
2024/01/15 01:16:38;;;;;;;35.22;14.77;;;1.30;99.90;;;;;;5054864;28;20228;-59
2024/01/15 01:19:05;;;;;;;23.65;10.43;;;1.30;99.90;;;;;;5055032;28;20170;-53
2024/01/15 01:21:30;;;;;;;38.03;14.65;;;1.30;99.90;;;;;;5054852;28;20248;-60
2024/01/15 01:23:56;;;;;;;35.38;12.00;;;1.30;99.90;;;;;;5054711;28;20574;-61
2024/01/15 01:26:21;;;;;;;29.35;15.70;;;1.30;99.90;;;;;;5054230;28;20584;-60
2024/01/15 01:28:47;;;;;;;29.75;13.38;;;1.30;99.90;;;;;;5054645;28;20618;-52
2024/01/15 01:31:12;;;;;;;35.97;13.90;;;1.30;99.90;;;;;;5055141;28;20171;-60
2024/01/15 01:33:40;;;;;;;31.25;14.77;;;1.40;99.90;;;;;;5054497;28;20189;-59
2024/01/15 01:36:09;;;;;;;31.77;13.55;;;1.40;99.90;;;;;;5054460;28;20182;-60
2024/01/15 01:38:35;;;;;;;35.75;14.18;;;1.30;99.90;;;;;;5054351;28;20228;-60
2024/01/15 01:41:01;;;;;;;27.45;11.65;;;1.40;99.90;;;;;;5054198;28;20206;-60
2024/01/15 01:43:27;;;;;;;33.47;14.68;;;1.40;99.90;;;;;;5054364;28;20165;-60
2024/01/15 01:45:55;;;;;;;32.88;13.27;;;1.40;99.90;;;;;;5054471;28;20229;-61
2024/01/15 01:48:21;;;;;;;24.25;11.13;;;1.40;99.90;;;;;;5054259;28;20197;-60
2024/01/15 01:50:47;;;;;;;28.70;12.55;;;1.50;99.90;;;;;;5054171;28;20202;-47
2024/01/15 01:53:12;;;;;;;31.85;13.77;;;1.40;99.90;;;;;;5054495;28;20178;-60
2024/01/15 01:55:38;;;;;;;24.95;11.05;;;1.50;99.90;;;;;;5053893;28;20225;-60
2024/01/15 01:58:05;;;;;;;30.50;13.00;;;1.40;99.90;;;;;;5053926;28;20300;-60
2024/01/15 02:00:32;;;;;;;21.63;10.43;;;1.40;99.90;;;;;;5053923;28;20288;-60
2024/01/15 02:02:57;;;;;;;24.15;11.48;;;1.40;99.90;;;;;;5053966;28;20170;-60
2024/01/15 02:05:23;;;;;;;21.75;11.45;;;1.40;99.90;;;;;;5053897;28;20245;-60
2024/01/15 02:07:49;;;;;;;30.73;12.88;;;1.40;99.90;;;;;;5053326;28;20638;-59
2024/01/15 02:10:14;;;;;;;36.90;14.85;;;1.50;99.90;;;;;;5054149;28;20165;-62
2024/01/15 02:12:40;;;;;;;29.15;11.27;;;1.40;99.90;;;;;;5053697;28;20182;-62
2024/01/15 02:15:06;;;;;;;27.23;13.05;;;1.50;99.90;;;;;;5053655;28;20249;-62
2024/01/15 02:17:31;;;;;;;28.05;14.63;;;1.50;99.90;;;;;;5053632;28;20665;-63
2024/01/15 02:19:57;;;;;;;28.35;12.18;;;1.50;99.90;;;;;;5053537;28;20217;-59
2024/01/15 02:22:22;;;;;;;25.45;11.95;;;1.50;99.90;;;;;;5053732;28;20167;-59
2024/01/15 02:24:48;;;;;;;29.02;13.68;;;1.50;99.90;;;;;;5053498;28;20693;-57
2024/01/15 02:27:14;;;;;;;27.02;12.63;;;1.50;99.90;;;;;;5053994;28;20575;-59
2024/01/15 02:29:40;;;;;;;31.55;13.77;;;1.50;99.90;;;;;;5053412;28;20166;-58
2024/01/15 02:32:06;;;;;;;29.95;12.73;;;1.50;99.90;;;;;;5053364;28;20166;-59
2024/01/15 02:34:32;;;;;;;31.25;13.82;;;1.60;99.90;;;;;;5053378;28;20204;-60
2024/01/15 02:36:58;;;;;;;20.30;9.18;;;1.50;99.90;;;;;;5053279;28;20167;-61
2024/01/15 02:39:24;;;;;;;31.80;14.52;;;1.60;99.90;;;;;;5053250;28;20642;-61
2024/01/15 02:41:49;;;;;;;30.75;13.27;;;1.60;99.90;;;;;;5053366;28;20258;-61
2024/01/15 02:44:15;;;;;;;28.10;12.98;;;1.60;99.90;;;;;;5053703;28;20163;-60
2024/01/15 02:46:40;;;;;;;25.92;9.85;;;1.60;99.90;;;;;;5053085;28;20180;-59
2024/01/15 02:49:06;;;;;;;32.78;10.23;;;1.60;99.90;;;;;;5053061;28;20167;-60
2024/01/15 02:51:31;;;;;;;16.92;8.82;;;1.60;99.90;;;;;;5052937;28;20167;-59
2024/01/15 02:53:57;;;;;;;25.90;11.90;;;1.60;99.90;;;;;;5053009;28;20245;-51
2024/01/15 02:56:22;;;;;;;25.45;12.15;;;1.50;99.90;;;;;;5052810;28;20678;-48
2024/01/15 02:58:48;;;;;;;15.30;9.43;;;1.60;99.90;;;;;;5053008;28;20648;-47
2024/01/15 03:01:13;;;;;;;26.55;12.48;;;1.50;99.90;;;;;;5051899;28;20796;-48
2024/01/15 03:03:40;;;;;;;25.30;9.98;;;1.60;99.90;;;;;;5052797;28;20246;-47
2024/01/15 03:06:06;;;;;;;24.25;10.43;;;1.50;99.90;;;;;;5052759;28;20166;-47
2024/01/15 03:08:31;;;;;;;16.67;8.05;;;1.50;99.90;;;;;;5052642;28;20216;-47
2024/01/15 03:10:57;;;;;;;22.15;8.98;;;1.50;99.90;;;;;;5052872;28;20171;-47
2024/01/15 03:13:22;;;;;;;21.67;10.35;;;1.50;99.90;;;;;;5052616;28;20158;-47
2024/01/15 03:15:48;;;;;;;20.75;10.40;;;1.50;99.90;;;;;;5052472;28;20228;-47
2024/01/15 03:18:13;;;;;;;22.50;10.05;;;1.50;99.90;;;;;;5052259;28;20584;-49
2024/01/15 03:20:39;;;;;;;17.40;7.97;;;1.50;99.90;;;;;;5052024;28;20264;-48
2024/01/15 03:23:05;;;;;;;24.30;12.75;;;1.60;99.90;;;;;;5052411;28;20626;-47
2024/01/15 03:25:30;;;;;;;26.05;11.43;;;1.60;99.90;;;;;;5052345;28;20224;-47
2024/01/15 03:27:56;;;;;;;24.30;11.45;;;1.50;99.90;;;;;;5052282;28;20166;-48
2024/01/15 03:30:21;;;;;;;24.60;12.70;;;1.60;99.90;;;;;;5052259;28;20170;-48
2024/01/15 03:32:47;;;;;;;20.63;9.18;;;1.50;99.90;;;;;;5052303;28;20170;-48
2024/01/15 03:35:13;;;;;;;23.95;12.48;;;1.60;99.90;;;;;;5052485;28;20190;-47
2024/01/15 03:37:38;;;;;;;26.58;11.82;;;1.60;99.90;;;;;;5052208;28;20163;-47
2024/01/15 03:40:04;;;;;;;25.25;12.45;;;1.50;99.90;;;;;;5052031;28;20198;-53
2024/01/15 03:42:30;;;;;;;26.95;13.98;;;1.60;99.90;;;;;;5052076;28;20196;-55
2024/01/15 03:44:56;;;;;;;23.70;12.20;;;1.60;99.90;;;;;;5051970;28;20258;-48
2024/01/15 03:47:21;;;;;;;32.40;13.15;;;1.60;99.90;;;;;;5052002;28;20634;-48
2024/01/15 03:49:47;;;;;;;21.27;11.85;;;1.60;99.90;;;;;;5051950;28;20174;-47
2024/01/15 03:52:13;;;;;;;27.70;12.27;;;1.60;99.90;;;;;;5052578;28;20178;-59
2024/01/15 03:54:38;;;;;;;25.02;11.48;;;1.50;99.90;;;;;;5051820;28;20163;-59
2024/01/15 03:57:04;;;;;;;23.88;11.00;;;1.60;99.90;;;;;;5051582;28;20219;-59
2024/01/15 03:59:30;;;;;;;32.88;10.95;;;1.60;99.90;;;;;;5051523;28;20627;-59
2024/01/15 04:01:55;;;;;;;15.27;7.90;;;1.60;99.90;;;;;;5051921;28;20170;-59
2024/01/15 04:04:21;;;;;;;25.35;11.43;;;1.50;99.90;;;;;;5051702;28;20159;-59
2024/01/15 04:06:46;;;;;;;31.88;12.57;;;1.50;99.90;;;;;;5051574;28;20573;-51
2024/01/15 04:09:13;;;;;;;25.35;11.13;;;1.50;99.90;;;;;;5052271;28;20172;-59
2024/01/15 04:11:39;;;;;;;27.92;13.20;;;1.40;99.90;;;;;;5051447;28;20166;-59
2024/01/15 04:14:05;;;;;;;20.60;11.38;;;1.40;99.90;;;;;;5051708;28;20224;-60
2024/01/15 04:16:30;;;;;;;22.58;9.68;;;1.40;99.90;;;;;;5051434;28;20163;-60
2024/01/15 04:18:56;;;;;;;21.08;10.15;;;1.40;99.90;;;;;;5051373;28;20193;-60
2024/01/15 04:21:22;;;;;;;22.58;9.77;;;1.40;99.90;;;;;;5051266;28;20293;-59
2024/01/15 04:23:47;;;;;;;25.08;10.77;;;1.40;99.90;;;;;;5051214;28;20194;-57
2024/01/15 04:26:13;;;;;;;16.13;9.02;;;1.40;99.90;;;;;;5051967;28;20177;-59
2024/01/15 04:28:38;;;;;;;18.65;9.77;;;1.40;99.90;;;;;;5051530;28;20172;-58
2024/01/15 04:31:04;;;;;;;18.73;9.57;;;1.40;99.90;;;;;;5051042;28;20163;-59
2024/01/15 04:33:29;;;;;;;18.42;10.38;;;1.50;99.90;;;;;;5051235;28;20175;-58
2024/01/15 04:35:55;;;;;;;21.48;10.27;;;1.50;99.90;;;;;;5051228;28;20244;-58
2024/01/15 04:38:20;;;;;;;19.15;10.30;;;1.50;99.90;;;;;;5051158;28;20166;-55
2024/01/15 04:40:46;;;;;;;18.23;9.80;;;1.50;99.90;;;;;;5051196;28;20572;-48
2024/01/15 04:43:11;;;;;;;18.08;9.77;;;1.60;99.90;;;;;;5051628;28;20261;-58
2024/01/15 04:45:37;;;;;;;17.02;7.50;;;1.50;99.90;;;;;;5051350;28;20175;-59
2024/01/15 04:48:03;;;;;;;20.95;10.88;;;1.50;99.90;;;;;;5051296;28;20520;-59
2024/01/15 04:50:28;;;;;;;24.30;9.75;;;1.50;99.90;;;;;;5050957;28;20166;-56
2024/01/15 04:52:54;;;;;;;18.23;8.98;;;1.60;99.90;;;;;;5051050;28;20174;-48
2024/01/15 04:55:20;;;;;;;23.70;9.38;;;1.60;99.90;;;;;;5050845;28;20171;-48
2024/01/15 04:57:46;;;;;;;18.45;7.72;;;1.50;99.90;;;;;;5051577;28;20266;-47
2024/01/15 05:00:13;;;;;;;18.45;9.88;;;1.50;99.90;;;;;;5051620;28;20233;-50
2024/01/15 05:02:38;;;;;;;16.77;8.65;;;1.50;99.90;;;;;;5051151;28;20253;-58
2024/01/15 05:05:04;;;;;;;24.42;10.20;;;1.50;99.90;;;;;;5051185;28;20261;-59
2024/01/15 05:07:29;;;;;;;20.33;10.27;;;1.50;99.90;;;;;;5050881;28;20167;-58
2024/01/15 05:09:55;;;;;;;17.77;8.88;;;1.50;99.90;;;;;;5050881;28;20167;-58
2024/01/15 05:12:20;;;;;;;19.85;10.45;;;1.60;99.90;;;;;;5050869;28;20221;-58
2024/01/15 05:14:46;;;;;;;20.50;10.63;;;1.60;99.90;;;;;;5050829;28;20174;-48
2024/01/15 05:17:11;;;;;;;19.25;8.48;;;1.60;99.90;;;;;;5051165;28;20184;-59
2024/01/15 05:19:37;;;;;;;19.45;10.38;;;1.60;99.90;;;;;;5050627;28;20163;-60
2024/01/15 05:22:03;;;;;;;16.48;7.65;;;1.60;99.90;;;;;;5050694;28;20626;-59
2024/01/15 05:24:28;;;;;;;19.10;9.13;;;1.60;99.90;;;;;;5050678;28;20732;-59
2024/01/15 05:26:54;;;;;;;18.95;8.82;;;1.50;99.90;;;;;;5050770;28;20174;-57
2024/01/15 05:29:19;;;;;;;22.45;10.07;;;1.60;99.90;;;;;;5050889;28;20249;-59
2024/01/15 05:31:45;;;;;;;18.27;9.63;;;1.50;99.90;;;;;;5050788;28;20655;-57
2024/01/15 05:34:10;;;;;;;20.08;8.80;;;1.60;99.90;;;;;;5050611;28;20626;-58
2024/01/15 05:36:36;;;;;;;17.70;7.45;;;1.60;99.90;;;;;;5050551;28;20213;-58
2024/01/15 05:39:02;;;;;;;12.27;7.40;;;1.50;99.90;;;;;;5050906;28;20193;-58
2024/01/15 05:41:28;;;;;;;15.90;6.68;;;1.50;99.90;;;;;;5050374;28;20225;-59
2024/01/15 05:43:53;;;;;;;16.70;7.88;;;1.50;99.90;;;;;;5054206;28;20167;-59
2024/01/15 05:46:19;;;;;;;19.38;8.23;;;1.60;99.90;;;;;;5054270;28;20174;-58
2024/01/15 05:48:45;;;;;;;11.65;6.25;;;1.60;99.90;;;;;;5054454;28;20249;-57
2024/01/15 05:51:10;;;;;;;15.88;6.43;;;1.60;99.90;;;;;;5054131;28;20698;-57
2024/01/15 05:53:38;;;;;;;13.93;7.25;;;1.50;99.90;;;;;;5054137;28;20641;-51
2024/01/15 05:56:04;;;;;;;15.20;8.65;;;1.50;99.90;;;;;;5053892;28;20222;-58
2024/01/15 05:58:29;;;;;;;18.65;8.43;;;1.60;99.90;;;;;;5053884;28;20626;-58
2024/01/15 06:00:55;;;;;;;16.60;9.57;;;1.60;99.90;;;;;;5053899;28;20206;-58
2024/01/15 06:03:20;;;;;;;19.38;8.88;;;1.70;99.90;;;;;;5053910;28;20186;-58
2024/01/15 06:05:46;;;;;;;25.48;9.25;;;1.70;99.90;;;;;;5053896;28;20171;-47
2024/01/15 06:08:11;;;;;;;17.75;8.05;;;1.70;99.90;;;;;;5054329;28;20535;-59
2024/01/15 06:10:37;;;;;;;15.63;8.05;;;1.70;99.90;;;;;;5053785;28;20631;-55
2024/01/15 06:13:02;;;;;;;17.20;8.60;;;1.70;99.90;;;;;;5053701;28;20527;-59
2024/01/15 06:15:28;;;;;;;15.95;8.55;;;1.70;99.90;;;;;;5053651;28;20619;-50
2024/01/15 06:17:53;;;;;;;13.23;6.88;;;1.70;99.90;;;;;;5053536;28;20557;-50
2024/01/15 06:20:19;;;;;;;14.88;8.15;;;1.70;99.90;;;;;;5053039;28;20220;-48
2024/01/15 06:22:44;;;;;;;16.25;8.35;;;1.70;99.90;;;;;;5053160;28;20643;-48
2024/01/15 06:25:10;;;;;;;21.98;9.48;;;1.60;99.90;;;;;;5051498;28;20549;-51
2024/01/15 06:27:35;;;;;;;20.48;8.13;;;1.60;99.90;;;;;;5052536;28;20648;-47
2024/01/15 06:30:01;;;;;;;17.27;8.73;;;1.70;99.90;;;;;;5052826;28;20240;-54
2024/01/15 06:32:27;;;;;;;18.25;9.40;;;1.70;99.90;;;;;;5052720;28;20167;-47
2024/01/15 06:34:52;;;;;;;16.83;8.15;;;1.70;99.90;;;;;;5052796;28;20190;-54
2024/01/15 06:37:20;;;;;;;17.85;9.60;;;1.60;99.90;;;;;;5053363;28;20174;-55
2024/01/15 06:39:45;;;;;;;12.82;7.97;;;1.60;99.90;;;;;;5053524;28;20662;-48
2024/01/15 06:42:11;;;;;;;17.33;8.77;;;1.70;99.90;;;;;;5053441;28;20250;-54
2024/01/15 06:44:37;;;;;;;14.52;7.22;;;1.70;99.90;;;;;;5053032;28;20182;-47
2024/01/15 06:47:02;;;;;;;15.88;7.95;;;1.70;99.90;;;;;;5053095;28;20167;-53
2024/01/15 06:49:30;;;;;;;17.92;8.85;;;1.70;99.90;;;;;;5053005;28;20174;-52
2024/01/15 06:51:56;;;;;;;17.20;8.63;;;1.70;99.90;;;;;;5052878;28;20155;-57
2024/01/15 06:54:23;;;;;;;14.13;8.40;;;1.70;99.90;;;;;;5052889;28;20162;-57
2024/01/15 06:56:49;;;;;;;17.15;7.82;;;1.80;99.90;;;;;;5052780;28;20238;-58
2024/01/15 06:59:14;;;;;;;15.35;8.60;;;1.80;99.90;;;;;;5053298;28;20163;-56
2024/01/15 07:01:40;;;;;;;13.75;7.78;;;1.70;99.90;;;;;;5052817;28;20229;-56
2024/01/15 07:04:05;;;;;;;17.63;8.23;;;1.70;99.90;;;;;;5053031;28;20518;-57
2024/01/15 07:06:31;;;;;;;17.45;8.60;;;1.70;99.90;;;;;;5052698;28;20646;-57
2024/01/15 07:08:57;;;;;;;14.73;8.32;;;1.80;99.90;;;;;;5052784;28;20698;-58
2024/01/15 07:11:23;;;;;;;12.23;7.13;;;1.80;99.90;;;;;;5052575;28;20206;-58
2024/01/15 07:13:48;;;;;;;17.60;9.02;;;1.80;99.90;;;;;;5052608;28;20185;-56
2024/01/15 07:16:15;;;;;;;16.30;8.80;;;1.80;99.90;;;;;;5053185;28;20182;-55
2024/01/15 07:18:40;;;;;;;12.98;7.63;;;1.80;99.90;;;;;;5053225;28;20170;-55
2024/01/15 07:21:06;;;;;;;23.40;9.20;;;1.80;99.90;;;;;;5052255;28;20281;-49
2024/01/15 07:23:32;;;;;;;18.60;9.70;;;1.80;99.90;;;;;;5052357;28;20494;-51
2024/01/15 07:25:57;;;;;;;20.20;10.23;;;1.80;99.90;;;;;;5052296;28;20219;-52
2024/01/15 07:28:23;;;;;;;15.07;7.53;;;1.80;99.90;;;;;;5052639;28;20592;-47
2024/01/15 07:30:48;;;;;;;13.43;8.20;;;1.80;99.90;;;;;;5052236;28;20174;-51
2024/01/15 07:33:14;;;;;;;14.82;7.93;;;1.80;99.90;;;;;;5052810;28;20171;-59
2024/01/15 07:35:39;;;;;;;18.40;9.95;;;1.80;99.90;;;;;;5052252;28;20163;-48
2024/01/15 07:38:05;;;;;;;17.70;8.88;;;1.80;99.90;;;;;;5052124;28;20246;-47
2024/01/15 07:40:31;;;;;;;20.85;10.38;;;1.80;99.90;;;;;;5052224;28;20218;-50
2024/01/15 07:42:56;;;;;;;14.90;7.25;;;1.90;99.90;;;;;;5052027;28;20246;-52
2024/01/15 07:45:22;;;;;;;12.60;7.20;;;1.80;99.90;;;;;;5051983;28;20179;-50
2024/01/15 07:47:48;;;;;;;21.33;11.35;;;1.90;99.90;;;;;;5051985;28;20531;-48
2024/01/15 07:50:14;;;;;;;23.23;10.75;;;1.90;99.90;;;;;;5052318;28;20646;-48
2024/01/15 07:52:41;;;;;;;21.70;11.50;;;2.00;99.90;;;;;;5051810;28;20166;-47
2024/01/15 07:55:07;;;;;;;24.17;13.80;;;2.00;99.90;;;;;;5051862;28;20638;-50
2024/01/15 07:57:33;;;;;;;19.63;9.25;;;1.90;99.90;;;;;;5051509;28;20268;-49
2024/01/15 07:59:59;;;;;;;27.67;12.93;;;1.90;99.90;;;;;;5051680;28;20194;-49
2024/01/15 08:02:24;;;;;;;20.13;10.18;;;2.00;99.90;;;;;;5051716;28;20689;-47
2024/01/15 08:04:50;;;;;;;25.88;13.10;;;1.90;99.90;;;;;;5051158;28;20261;-49
2024/01/15 08:07:17;;;;;;;22.38;12.45;;;2.00;99.90;;;;;;5051804;28;20198;-50
2024/01/15 08:09:43;;;;;;;28.65;12.60;;;2.00;99.90;;;;;;5052120;28;20162;-50
2024/01/15 08:12:09;;;;;;;21.13;11.65;;;2.00;99.90;;;;;;5051730;28;20265;-57
2024/01/15 08:14:35;;;;;;;22.23;12.70;;;1.90;99.90;;;;;;5051380;28;20694;-48
2024/01/15 08:17:01;;;;;;;20.40;10.88;;;2.00;99.90;;;;;;5051439;28;20258;-53
2024/01/15 08:19:27;;;;;;;20.05;9.98;;;1.90;99.90;;;;;;5051311;28;20615;-49
2024/01/15 08:21:53;;;;;;;21.98;12.18;;;1.90;99.90;;;;;;5051417;28;20256;-58
2024/01/15 08:24:18;;;;;;;23.35;13.50;;;1.90;99.90;;;;;;5051412;28;20180;-58
2024/01/15 08:26:45;;;;;;;20.02;11.02;;;1.90;99.90;;;;;;5051831;28;20175;-49
2024/01/15 08:29:10;;;;;;;17.10;9.48;;;1.90;99.90;;;;;;5051998;28;20174;-57
2024/01/15 08:31:36;;;;;;;23.65;12.98;;;1.90;99.90;;;;;;5051337;28;20240;-55
2024/01/15 08:34:01;;;;;;;19.50;9.70;;;1.90;99.90;;;;;;5051279;28;20167;-55
2024/01/15 08:36:29;;;;;;;21.85;10.38;;;1.80;99.90;;;;;;5051298;28;20174;-59
2024/01/15 08:38:55;;;;;;;20.70;10.48;;;1.90;99.90;;;;;;5051271;28;20174;-56
2024/01/15 08:41:20;;;;;;;17.23;9.80;;;1.90;99.90;;;;;;5051097;28;20213;-53
2024/01/15 08:43:46;;;;;;;20.50;11.40;;;1.90;99.90;;;;;;5051309;28;20169;-54
2024/01/15 08:46:11;;;;;;;24.63;12.43;;;1.90;99.90;;;;;;5051840;28;20523;-57
2024/01/15 08:48:37;;;;;;;18.35;10.35;;;1.90;99.90;;;;;;5051071;28;20163;-58
2024/01/15 08:51:03;;;;;;;19.08;10.15;;;1.90;99.90;;;;;;5051069;28;20220;-60
2024/01/15 08:53:28;;;;;;;18.15;9.43;;;1.90;99.90;;;;;;5050992;28;20166;-61
2024/01/15 08:55:54;;;;;;;22.08;8.85;;;1.90;99.90;;;;;;5050869;28;20246;-56
2024/01/15 08:58:19;;;;;;;16.95;9.02;;;1.90;99.90;;;;;;5050987;28;20536;-48
2024/01/15 09:00:45;;;;;;;16.48;7.60;;;1.90;99.90;;;;;;5051285;28;20221;-61
2024/01/15 09:03:10;;;;;;;22.95;10.38;;;1.80;99.90;;;;;;5051337;28;20190;-60
2024/01/15 09:05:36;;;;;;;12.43;6.68;;;1.90;99.90;;;;;;5050984;28;20171;-54
2024/01/15 09:08:02;;;;;;;15.10;8.02;;;1.90;99.90;;;;;;5050881;28;20167;-53
2024/01/15 09:10:27;;;;;;;12.55;8.05;;;2.00;99.90;;;;;;5050847;28;20631;-60
2024/01/15 09:12:53;;;;;;;12.88;7.22;;;1.90;99.90;;;;;;5050837;28;20155;-60
2024/01/15 09:15:18;;;;;;;14.25;8.70;;;1.80;99.90;;;;;;5050929;28;20216;-55
2024/01/15 09:17:46;;;;;;;13.95;8.32;;;1.80;99.90;;;;;;5053553;28;20232;-58
2024/01/15 09:20:11;;;;;;;11.75;6.20;;;1.70;99.90;;;;;;5055339;28;20213;-52
2024/01/15 09:22:42;;;;;;;7.72;5.75;;;1.70;99.90;;;;;;5054615;28;20167;-48
2024/01/15 09:25:11;;;;;;;9.93;6.30;;;1.70;99.90;;;;;;5054634;28;20166;-51
2024/01/15 09:27:37;;;;;;;8.57;6.25;;;1.70;99.90;;;;;;5054575;28;20525;-60
2024/01/15 09:30:04;;;;;;;8.65;5.70;;;1.70;99.90;;;;;;5054518;28;20163;-54
2024/01/15 09:32:30;;;;;;;12.45;6.93;;;1.60;99.90;;;;;;5054547;28;20162;-58
2024/01/15 09:34:56;;;;;;;10.63;6.00;;;1.70;99.90;;;;;;5054531;28;20627;-59
2024/01/15 09:37:21;;;;;;;9.02;5.65;;;1.60;99.90;;;;;;5053432;28;20210;-58
2024/01/15 09:39:48;;;;;;;9.23;4.38;;;1.60;99.90;;;;;;5054724;28;20194;-60
2024/01/15 09:42:14;;;;;;;6.68;4.03;;;1.60;99.90;;;;;;5053763;28;20261;-60
2024/01/15 09:44:41;;;;;;;7.07;4.15;;;1.70;99.90;;;;;;5055061;28;20191;-60
2024/01/15 09:47:07;;;;;;;7.15;4.25;;;1.70;99.90;;;;;;5054244;28;20182;-60
2024/01/15 09:49:32;;;;;;;7.03;4.22;;;1.70;99.90;;;;;;5054084;28;20171;-54
2024/01/15 09:51:58;;;;;;;4.72;3.97;;;1.80;99.90;;;;;;5054405;28;20175;-52
2024/01/15 09:54:24;;;;;;;5.68;4.03;;;1.90;99.90;;;;;;5054034;28;20159;-60
2024/01/15 09:56:50;;;;;;;7.03;4.72;;;2.00;99.90;;;;;;5053893;28;20218;-52
2024/01/15 09:59:19;;;;;;;5.10;3.53;;;2.00;99.90;;;;;;5054071;28;20170;-58
2024/01/15 10:01:47;;;;;;;6.25;4.47;;;1.90;99.90;;;;;;5054324;28;20271;-48
2024/01/15 10:04:13;;;;;;;7.40;3.47;;;1.90;99.90;;;;;;5054682;28;20181;-60
2024/01/15 10:06:43;;;;;;;8.70;3.65;;;1.80;99.90;;;;;;5053898;28;20631;-59
2024/01/15 10:09:09;;;;;;;7.00;3.83;;;1.80;99.90;;;;;;5053821;28;20722;-60
2024/01/15 10:11:35;;;;;;;6.65;3.38;;;1.90;99.90;;;;;;5053804;28;20241;-60
2024/01/15 10:14:01;;;;;;;5.20;3.38;;;1.90;99.90;;;;;;5053729;28;20638;-59
2024/01/15 10:16:26;;;;;;;5.05;3.85;;;1.90;99.90;;;;;;5053682;28;20202;-60
2024/01/15 10:18:52;;;;;;;6.50;4.03;;;1.90;99.90;;;;;;5053668;28;20195;-61
2024/01/15 10:21:17;;;;;;;4.30;3.50;;;1.90;99.90;;;;;;5053512;28;20210;-48
2024/01/15 10:23:44;;;;;;;5.13;3.55;;;1.90;99.90;;;;;;5054148;28;20220;-49
2024/01/15 10:26:11;;;;;;;2.65;2.45;;;1.90;99.90;;;;;;5053808;28;20638;-49
2024/01/15 10:28:37;;;;;;;5.07;3.00;;;1.90;99.90;;;;;;5053319;28;20171;-48
2024/01/15 10:31:03;;;;;;;7.65;3.30;;;1.90;99.90;;;;;;5053004;28;20501;-49
2024/01/15 10:33:28;;;;;;;3.92;3.20;;;1.90;99.90;;;;;;5053375;28;20170;-54
2024/01/15 10:35:55;;;;;;;4.57;3.67;;;1.80;99.90;;;;;;5053300;28;20525;-49
2024/01/15 10:38:22;;;;;;;2.25;2.05;;;1.80;99.90;;;;;;5053076;28;20711;-48
2024/01/15 10:40:51;;;;;;;3.63;2.60;;;1.70;99.90;;;;;;5053387;28;20561;-49
2024/01/15 10:43:17;;;;;;;2.80;2.05;;;1.70;99.90;;;;;;5052785;28;20173;-48
2024/01/15 10:45:45;;;;;;;2.00;1.77;;;1.80;99.90;;;;;;5053825;28;20174;-48
2024/01/15 10:48:10;;;;;;;2.15;1.95;;;1.70;99.90;;;;;;5053535;28;20159;-49
2024/01/15 10:50:36;;;;;;;3.83;2.15;;;1.80;99.90;;;;;;5053053;28;20224;-48
2024/01/15 10:53:03;;;;;;;5.45;3.38;;;1.70;99.90;;;;;;5053060;28;20653;-49
2024/01/15 10:55:30;;;;;;;3.20;1.70;;;1.80;99.90;;;;;;5051961;28;20177;-59
2024/01/15 10:57:57;;;;;;;2.15;1.77;;;1.70;99.90;;;;;;5052424;28;20167;-60
2024/01/15 11:00:22;;;;;;;5.25;3.17;;;1.70;99.90;;;;;;5052621;28;20214;-60
2024/01/15 11:02:48;;;;;;;3.22;2.70;;;1.70;99.90;;;;;;5052626;28;20178;-60
2024/01/15 11:05:14;;;;;;;3.03;2.75;;;1.80;99.90;;;;;;5053014;28;20171;-58
2024/01/15 11:07:41;;;;;;;2.72;1.88;;;1.90;99.90;;;;;;5052560;28;20225;-52
2024/01/15 11:10:10;;;;;;;3.88;2.58;;;1.90;99.90;;;;;;5052182;28;20163;-48
2024/01/15 11:12:35;;;;;;;3.33;2.20;;;2.00;99.90;;;;;;5052444;28;20174;-49
2024/01/15 11:15:04;;;;;;;3.22;2.78;;;2.00;99.90;;;;;;5052465;28;20159;-54
2024/01/15 11:18:03;;;;;;;3.53;2.25;;;2.10;99.90;;;;;;5052302;28;20177;-48
2024/01/15 11:20:29;;;;;;;4.53;3.05;;;2.10;99.90;;;;;;5052436;28;20217;-47
2024/01/15 11:22:57;;;;;;;2.78;2.15;;;2.10;99.90;;;;;;5052024;28;20630;-48
2024/01/15 11:25:23;;;;;;;3.58;3.28;;;2.10;99.90;;;;;;5052409;28;20177;-54
2024/01/15 11:27:51;;;;;;;2.58;2.38;;;2.10;99.90;;;;;;5052175;28;20257;-56
2024/01/15 11:30:17;;;;;;;5.60;3.83;;;2.00;99.90;;;;;;5052043;28;20167;-58
2024/01/15 11:32:43;;;;;;;3.88;2.97;;;2.10;99.90;;;;;;5052562;28;20228;-58
2024/01/15 11:35:10;;;;;;;4.40;3.25;;;2.10;99.90;;;;;;5052241;28;20202;-59
2024/01/15 11:37:51;;;;;;;5.18;3.88;;;2.10;99.90;;;;;;5051642;28;20185;-57
2024/01/15 11:40:21;;;;;;;4.97;3.83;;;2.20;99.90;;;;;;5051379;28;20194;-58
2024/01/15 11:42:47;;;;;;;5.07;4.30;;;2.20;99.90;;;;;;5051845;28;20170;-57
2024/01/15 11:45:16;;;;;;;6.28;4.35;;;2.20;99.90;;;;;;5050980;28;20576;-48
2024/01/15 11:48:09;;;;;;;25.13;11.10;;;2.10;99.90;;;;;;5052168;28;20171;-55
2024/01/15 11:50:34;;;;;;;10.27;6.97;;;2.10;99.90;;;;;;5051680;28;20661;-59
2024/01/15 11:53:02;;;;;;;6.75;4.75;;;2.10;99.90;;;;;;5051279;28;20167;-50
2024/01/15 11:55:36;;;;;;;7.20;4.10;;;2.00;99.90;;;;;;5051720;28;20201;-46
2024/01/15 11:58:03;;;;;;;8.48;5.03;;;2.10;99.90;;;;;;5052554;28;20187;-48
2024/01/15 12:00:29;;;;;;;7.13;4.28;;;2.20;99.90;;;;;;5051218;28;20234;-51
2024/01/15 12:02:55;;;;;;;6.53;4.63;;;2.30;99.90;;;;;;5051470;28;20509;-53
2024/01/15 12:05:22;;;;;;;5.13;3.50;;;2.40;99.90;;;;;;5051617;28;20182;-49
2024/01/15 12:07:49;;;;;;;8.43;4.72;;;2.60;99.90;;;;;;5049868;28;20170;-58
2024/01/15 12:10:20;;;;;;;7.93;4.45;;;2.60;99.90;;;;;;5051606;28;20250;-48
2024/01/15 12:13:09;;;;;;;7.78;3.92;;;2.60;99.90;;;;;;5051516;28;20177;-56
2024/01/15 12:15:35;;;;;;;6.80;3.05;;;2.70;99.90;;;;;;5051389;28;20173;-48
2024/01/15 12:18:04;;;;;;;16.35;4.35;;;2.70;99.90;;;;;;5051346;28;20224;-55
2024/01/15 12:20:31;;;;;;;7.93;3.55;;;2.60;99.90;;;;;;5051158;28;20256;-59
2024/01/15 12:22:57;;;;;;;8.02;3.53;;;2.50;99.90;;;;;;5051363;28;20163;-56
2024/01/15 12:25:26;;;;;;;11.07;4.65;;;2.50;99.90;;;;;;5051100;28;20163;-50
2024/01/15 12:27:52;;;;;;;10.30;3.38;;;2.50;99.90;;;;;;5050954;28;20265;-47
2024/01/15 12:30:18;;;;;;;4.28;2.83;;;2.50;99.90;;;;;;5051068;28;20627;-48
2024/01/15 12:32:44;;;;;;;4.97;2.70;;;2.50;99.90;;;;;;5051479;28;20225;-48
2024/01/15 12:35:11;;;;;;;9.98;3.88;;;2.40;99.90;;;;;;5051201;28;20661;-48
2024/01/15 12:37:38;;;;;;;14.20;4.45;;;2.50;99.90;;;;;;5050692;28;20622;-53
2024/01/15 12:40:09;;;;;;;8.00;3.08;;;2.60;99.90;;;;;;5050803;28;20550;-48